createdAt,value
2018-02-19T00:00:42.303Z,99.99
2018-02-19T00:01:57.257Z,99.99
2018-02-19T00:03:11.837Z,99.99
2018-02-19T00:04:25.907Z,99.99
2018-02-19T00:05:40.416Z,99.99
2018-02-19T00:06:54.928Z,99.99
2018-02-19T00:08:08.934Z,99.99
2018-02-19T00:09:22.761Z,99.99
2018-02-19T00:10:37.526Z,99.99
2018-02-19T00:11:52.076Z,99.99
2018-02-19T00:13:06.668Z,99.99
2018-02-19T00:14:20.951Z,99.99
2018-02-19T00:15:35.215Z,99.99
2018-02-19T00:16:49.493Z,99.99
2018-02-19T00:18:03.737Z,99.99
2018-02-19T00:19:17.757Z,99.99
2018-02-19T00:20:32.260Z,99.99
2018-02-19T00:21:46.264Z,99.99
2018-02-19T00:23:00.289Z,99.99
2018-02-19T00:24:14.777Z,99.99
2018-02-19T00:25:28.344Z,99.99
2018-02-19T00:26:42.874Z,99.99
2018-02-19T00:27:57.584Z,99.99
2018-02-19T00:29:11.599Z,99.99
2018-02-19T00:30:25.948Z,99.99
2018-02-19T00:31:40.090Z,99.99
2018-02-19T00:32:54.721Z,99.99
2018-02-19T00:34:09.275Z,99.99
2018-02-19T00:35:23.244Z,99.99
2018-02-19T00:36:37.713Z,99.99
2018-02-19T00:37:51.977Z,99.99
2018-02-19T00:39:05.977Z,99.99
2018-02-19T00:40:20.207Z,99.99
2018-02-19T00:41:33.704Z,99.99
2018-02-19T00:42:47.948Z,99.99
2018-02-19T00:44:02.705Z,99.99
2018-02-19T00:45:17.218Z,99.99
2018-02-19T00:46:32.058Z,99.99
2018-02-19T00:47:46.053Z,99.99
2018-02-19T00:49:00.580Z,99.99
2018-02-19T00:50:14.851Z,99.99
2018-02-19T00:51:28.586Z,99.99
2018-02-19T00:52:43.063Z,99.99
2018-02-19T00:53:57.359Z,99.99
2018-02-19T00:55:11.574Z,99.99
2018-02-19T00:56:26.027Z,99.99
2018-02-19T00:57:40.291Z,99.99
2018-02-19T00:58:54.504Z,99.99
2018-02-19T01:00:08.522Z,99.99
2018-02-19T01:01:22.801Z,99.99
2018-02-19T01:02:37.053Z,99.99
2018-02-19T01:03:50.805Z,99.99
2018-02-19T01:05:04.485Z,99.99
2018-02-19T01:06:18.964Z,99.99
2018-02-19T01:07:33.487Z,99.99
2018-02-19T01:08:47.253Z,99.99
2018-02-19T01:10:01.247Z,99.99
2018-02-19T01:11:15.791Z,99.99
2018-02-19T01:12:29.782Z,99.99
2018-02-19T01:13:43.792Z,99.99
2018-02-19T01:14:57.813Z,99.99
2018-02-19T01:16:11.555Z,99.99
2018-02-19T01:17:25.840Z,99.99
2018-02-19T01:18:40.088Z,99.99
2018-02-19T01:19:54.602Z,99.99
2018-02-19T01:21:08.636Z,99.99
2018-02-19T01:22:23.127Z,99.99
2018-02-19T01:23:37.392Z,99.99
2018-02-19T01:24:51.644Z,99.99
2018-02-19T01:26:05.673Z,99.99
2018-02-19T01:27:19.688Z,99.99
2018-02-19T01:28:34.193Z,99.99
2018-02-19T01:29:47.928Z,99.99
2018-02-19T01:31:02.137Z,99.99
2018-02-19T01:32:16.388Z,99.99
2018-02-19T01:33:30.855Z,99.99
2018-02-19T01:34:44.610Z,99.99
2018-02-19T01:35:58.187Z,99.99
2018-02-19T01:37:12.673Z,99.99
2018-02-19T01:38:26.521Z,99.99
2018-02-19T01:39:41.224Z,99.99
2018-02-19T01:40:54.990Z,99.99
2018-02-19T01:42:09.217Z,99.99
2018-02-19T01:43:22.978Z,99.99
2018-02-19T01:44:36.715Z,99.99
2018-02-19T01:45:50.677Z,99.99
2018-02-19T01:47:05.424Z,99.99
2018-02-19T01:48:19.428Z,99.99
2018-02-19T01:49:33.683Z,99.99
2018-02-19T01:50:48.144Z,99.99
2018-02-19T01:52:02.399Z,99.99
2018-02-19T01:53:16.857Z,99.99
2018-02-19T01:54:31.088Z,99.99
2018-02-19T01:55:45.121Z,99.99
2018-02-19T01:56:58.877Z,99.99
2018-02-19T01:58:13.382Z,99.99
2018-02-19T01:59:27.831Z,99.99
2018-02-19T02:00:42.569Z,99.99
2018-02-19T02:01:56.606Z,99.99
2018-02-19T02:03:10.596Z,99.99
2018-02-19T02:04:24.586Z,99.99
2018-02-19T02:05:38.555Z,99.99
2018-02-19T02:06:52.789Z,99.99
2018-02-19T02:08:06.778Z,99.99
2018-02-19T02:09:21.528Z,99.99
2018-02-19T02:10:35.517Z,99.99
2018-02-19T02:11:49.597Z,99.99
2018-02-19T02:13:03.347Z,99.99
2018-02-19T02:14:17.811Z,99.99
2018-02-19T02:15:32.024Z,99.99
2018-02-19T02:16:46.218Z,99.99
2018-02-19T02:18:00.456Z,99.99
2018-02-19T02:19:14.692Z,99.99
2018-02-19T02:20:29.128Z,99.99
2018-02-19T02:21:43.602Z,99.99
2018-02-19T02:22:57.831Z,99.99
2018-02-19T02:24:11.305Z,99.99
2018-02-19T02:25:25.296Z,99.99
2018-02-19T02:26:39.306Z,99.99
2018-02-19T02:27:53.527Z,99.99
2018-02-19T02:29:07.572Z,99.99
2018-02-19T02:30:21.821Z,99.99
2018-02-19T02:31:35.799Z,99.99
2018-02-19T02:32:50.273Z,99.99
2018-02-19T02:34:04.768Z,99.99
2018-02-19T02:35:18.780Z,99.99
2018-02-19T02:36:33.480Z,99.99
2018-02-19T02:37:47.478Z,99.99
2018-02-19T02:39:01.749Z,99.99
2018-02-19T02:40:15.998Z,99.99
2018-02-19T02:41:30.484Z,99.99
2018-02-19T02:42:44.495Z,99.99
2018-02-19T02:43:58.511Z,99.99
2018-02-19T02:45:12.582Z,99.99
2018-02-19T02:46:26.825Z,99.99
2018-02-19T02:47:41.078Z,99.99
2018-02-19T02:48:55.292Z,99.99
2018-02-19T02:50:09.353Z,99.99
2018-02-19T02:51:23.645Z,99.99
2018-02-19T02:53:07.434Z,99.99
2018-02-19T02:54:21.986Z,99.99
2018-02-19T02:55:35.815Z,99.99
2018-02-19T02:56:50.380Z,99.99
2018-02-19T02:58:04.678Z,99.99
2018-02-19T02:59:19.180Z,99.99
2018-02-19T03:00:32.929Z,99.99
2018-02-19T03:01:47.671Z,99.99
2018-02-19T03:03:02.143Z,99.99
2018-02-19T03:04:16.413Z,99.99
2018-02-19T03:05:30.687Z,99.99
2018-02-19T03:06:44.914Z,99.99
2018-02-19T03:07:59.165Z,99.99
2018-02-19T03:09:13.388Z,99.99
2018-02-19T03:10:27.609Z,99.99
2018-02-19T03:11:42.070Z,99.99
2018-02-19T03:12:56.374Z,99.99
2018-02-19T03:14:10.618Z,99.99
2018-02-19T03:15:24.861Z,99.99
2018-02-19T03:16:39.339Z,99.99
2018-02-19T03:17:53.922Z,99.99
2018-02-19T03:19:08.382Z,99.99
2018-02-19T03:20:22.128Z,99.99
2018-02-19T03:21:36.361Z,99.99
2018-02-19T03:22:50.080Z,99.99
2018-02-19T03:24:03.547Z,99.99
2018-02-19T03:25:17.531Z,99.99
2018-02-19T03:26:32.111Z,99.99
2018-02-19T03:27:46.461Z,99.99
2018-02-19T03:29:00.690Z,99.99
2018-02-19T03:30:15.190Z,99.99
2018-02-19T03:31:29.442Z,99.99
2018-02-19T03:32:43.938Z,99.99
2018-02-19T03:33:57.961Z,99.99
2018-02-19T03:35:11.480Z,99.99
2018-02-19T03:36:25.985Z,99.99
2018-02-19T03:37:40.487Z,99.99
2018-02-19T03:38:54.475Z,99.99
2018-02-19T03:40:08.715Z,99.99
2018-02-19T03:41:22.214Z,99.99
2018-02-19T03:42:36.674Z,99.99
2018-02-19T03:43:51.132Z,99.99
2018-02-19T03:45:04.910Z,99.99
2018-02-19T03:46:18.927Z,99.99
2018-02-19T03:47:32.657Z,99.99
2018-02-19T03:48:47.169Z,99.99
2018-02-19T03:50:01.200Z,99.99
2018-02-19T03:51:15.556Z,99.99
2018-02-19T03:52:29.538Z,99.99
2018-02-19T03:53:43.759Z,99.99
2018-02-19T03:54:57.518Z,99.99
2018-02-19T03:56:11.282Z,99.99
2018-02-19T03:57:25.991Z,99.99
2018-02-19T03:58:40.717Z,99.99
2018-02-19T03:59:54.941Z,99.99
2018-02-19T04:01:09.159Z,99.99
2018-02-19T04:02:23.669Z,99.99
2018-02-19T04:03:37.171Z,99.99
2018-02-19T04:04:50.669Z,99.99
2018-02-19T04:06:05.146Z,99.99
2018-02-19T04:07:19.369Z,99.99
2018-02-19T04:08:33.846Z,99.99
2018-02-19T04:09:47.835Z,99.99
2018-02-19T04:11:01.814Z,99.99
2018-02-19T04:12:15.826Z,99.99
2018-02-19T04:13:30.293Z,99.99
2018-02-19T04:14:44.511Z,99.99
2018-02-19T04:15:58.726Z,99.99
2018-02-19T04:17:13.191Z,99.99
2018-02-19T04:18:27.668Z,99.99
2018-02-19T04:19:41.426Z,99.99
2018-02-19T04:20:55.405Z,99.99
2018-02-19T04:22:09.626Z,99.99
2018-02-19T04:23:23.873Z,99.99
2018-02-19T04:24:38.480Z,99.99
2018-02-19T04:25:52.979Z,99.99
2018-02-19T04:27:07.241Z,99.99
2018-02-19T04:28:21.730Z,99.99
2018-02-19T04:29:35.993Z,99.99
2018-02-19T04:30:50.314Z,99.99
2018-02-19T04:32:04.625Z,99.99
2018-02-19T04:33:18.694Z,99.99
2018-02-19T04:34:32.282Z,99.99
2018-02-19T04:35:46.860Z,99.99
2018-02-19T04:37:01.103Z,99.99
2018-02-19T04:38:15.094Z,99.99
2018-02-19T04:39:29.342Z,99.99
2018-02-19T04:40:43.593Z,99.99
2018-02-19T04:41:57.838Z,99.99
2018-02-19T04:43:12.332Z,99.99
2018-02-19T04:44:26.575Z,99.99
2018-02-19T04:45:55.946Z,99.99
2018-02-19T04:47:10.694Z,99.99
2018-02-19T04:48:24.963Z,99.99
2018-02-19T04:49:38.954Z,99.99
2018-02-19T04:50:53.677Z,99.99
2018-02-19T04:52:07.180Z,99.99
2018-02-19T04:53:21.161Z,99.99
2018-02-19T04:54:34.925Z,99.99
2018-02-19T04:55:48.914Z,99.99
2018-02-19T04:57:03.021Z,99.99
2018-02-19T04:58:16.752Z,99.99
2018-02-19T04:59:31.518Z,99.99
2018-02-19T05:00:45.534Z,99.99
2018-02-19T05:01:59.777Z,99.99
2018-02-19T05:03:13.783Z,99.99
2018-02-19T05:04:27.556Z,99.99
2018-02-19T05:05:41.533Z,99.99
2018-02-19T05:06:56.264Z,99.99
2018-02-19T05:08:10.524Z,99.99
2018-02-19T05:09:24.962Z,99.99
2018-02-19T05:10:38.954Z,99.99
2018-02-19T05:11:52.959Z,99.99
2018-02-19T05:13:06.946Z,99.99
2018-02-19T05:14:21.429Z,99.99
2018-02-19T05:15:35.714Z,99.99
2018-02-19T05:16:50.276Z,99.99
2018-02-19T05:18:04.563Z,99.99
2018-02-19T05:19:18.828Z,99.99
2018-02-19T05:20:32.571Z,99.99
2018-02-19T05:21:46.346Z,99.99
2018-02-19T05:23:01.101Z,99.99
2018-02-19T05:24:15.338Z,99.99
2018-02-19T05:25:30.062Z,99.99
2018-02-19T05:26:44.306Z,99.99
2018-02-19T05:27:58.324Z,99.99
2018-02-19T05:29:12.810Z,99.99
2018-02-19T05:30:26.932Z,99.99
2018-02-19T05:31:41.402Z,99.99
2018-02-19T05:32:55.889Z,99.99
2018-02-19T05:34:10.365Z,99.99
2018-02-19T05:35:24.454Z,99.99
2018-02-19T05:36:38.705Z,99.99
2018-02-19T05:37:52.727Z,99.99
2018-02-19T05:39:07.432Z,99.99
2018-02-19T05:40:21.665Z,99.99
2018-02-19T05:41:36.175Z,99.99
2018-02-19T05:42:49.950Z,99.99
2018-02-19T05:44:03.747Z,99.99
2018-02-19T05:45:17.522Z,99.99
2018-02-19T05:46:31.023Z,99.99
2018-02-19T05:47:45.562Z,99.99
2018-02-19T05:49:00.052Z,99.99
2018-02-19T05:50:14.776Z,99.99
2018-02-19T05:51:29.017Z,99.99
2018-02-19T05:52:43.273Z,99.99
2018-02-19T05:53:57.760Z,99.99
2018-02-19T05:55:12.268Z,99.99
2018-02-19T05:56:26.755Z,99.99
2018-02-19T05:57:40.759Z,99.99
2018-02-19T05:58:55.514Z,99.99
2018-02-19T06:00:09.289Z,99.99
2018-02-19T06:01:23.275Z,99.99
2018-02-19T06:02:38.031Z,99.99
2018-02-19T06:03:52.435Z,99.99
2018-02-19T06:05:06.175Z,99.99
2018-02-19T06:06:20.189Z,99.99
2018-02-19T06:07:33.947Z,99.99
2018-02-19T06:08:47.948Z,99.99
2018-02-19T06:10:02.419Z,99.99
2018-02-19T06:11:16.170Z,99.99
2018-02-19T06:12:30.800Z,99.99
2018-02-19T06:13:45.311Z,99.99
2018-02-19T06:14:59.566Z,99.99
2018-02-19T06:16:13.287Z,99.99
2018-02-19T06:17:27.788Z,99.99
2018-02-19T06:18:41.593Z,99.99
2018-02-19T06:19:55.877Z,99.99
2018-02-19T06:21:09.632Z,99.99
2018-02-19T06:22:23.607Z,99.99
2018-02-19T06:23:37.611Z,99.99
2018-02-19T06:24:51.371Z,99.99
2018-02-19T06:26:05.591Z,99.99
2018-02-19T06:27:19.803Z,99.99
2018-02-19T06:28:34.324Z,99.99
2018-02-19T06:29:48.551Z,99.99
2018-02-19T06:31:03.061Z,99.99
2018-02-19T06:32:17.281Z,99.99
2018-02-19T06:33:31.523Z,99.99
2018-02-19T06:34:46.024Z,99.99
2018-02-19T06:36:00.804Z,99.99
2018-02-19T06:37:14.949Z,99.99
2018-02-19T06:38:29.435Z,99.99
2018-02-19T06:39:43.437Z,99.99
2018-02-19T06:40:57.675Z,99.99
2018-02-19T06:42:11.674Z,99.99
2018-02-19T06:43:26.222Z,99.99
2018-02-19T06:44:40.486Z,99.99
2018-02-19T06:45:54.993Z,99.99
2018-02-19T06:47:09.462Z,99.99
2018-02-19T06:48:23.733Z,99.99
2018-02-19T06:49:37.766Z,99.99
2018-02-19T06:50:51.560Z,99.99
2018-02-19T06:52:06.086Z,99.99
2018-02-19T06:53:20.811Z,99.99
2018-02-19T06:54:35.600Z,99.99
2018-02-19T06:55:49.855Z,99.99
2018-02-19T06:57:04.358Z,99.99
2018-02-19T06:58:18.104Z,99.99
2018-02-19T06:59:32.354Z,99.99
2018-02-19T07:00:46.875Z,99.99
2018-02-19T07:02:01.428Z,99.99
2018-02-19T07:03:15.254Z,99.99
2018-02-19T07:04:29.041Z,99.99
2018-02-19T07:05:43.548Z,99.99
2018-02-19T07:06:57.827Z,99.99
2018-02-19T07:08:12.336Z,99.99
2018-02-19T07:09:26.587Z,99.99
2018-02-19T07:10:40.716Z,99.99
2018-02-19T07:11:55.443Z,99.99
2018-02-19T07:13:09.942Z,99.99
2018-02-19T07:14:24.682Z,99.99
2018-02-19T07:15:39.159Z,99.99
2018-02-19T07:16:52.913Z,99.99
2018-02-19T07:18:06.906Z,99.99
2018-02-19T07:19:20.626Z,99.99
2018-02-19T07:20:34.608Z,99.99
2018-02-19T07:21:48.850Z,99.99
2018-02-19T07:23:02.999Z,99.99
2018-02-19T07:24:17.287Z,99.99
2018-02-19T07:25:31.049Z,99.99
2018-02-19T07:26:45.542Z,99.99
2018-02-19T07:28:00.312Z,99.99
2018-02-19T07:29:14.797Z,99.99
2018-02-19T07:30:29.050Z,99.99
2018-02-19T07:31:43.172Z,99.99
2018-02-19T07:32:57.711Z,99.99
2018-02-19T07:34:12.244Z,99.99
2018-02-19T07:35:26.229Z,99.99
2018-02-19T07:36:40.318Z,99.99
2018-02-19T07:37:54.566Z,99.99
2018-02-19T07:39:08.094Z,99.99
2018-02-19T07:40:21.880Z,99.99
2018-02-19T07:41:36.167Z,99.99
2018-02-19T07:42:50.408Z,99.99
2018-02-19T07:44:04.799Z,99.99
2018-02-19T07:45:18.715Z,99.99
2018-02-19T07:46:32.965Z,99.99
2018-02-19T07:47:47.467Z,99.99
2018-02-19T07:49:01.693Z,99.99
2018-02-19T07:50:16.236Z,99.99
2018-02-19T07:51:30.321Z,99.99
2018-02-19T07:52:44.588Z,99.99
2018-02-19T07:53:58.367Z,99.99
2018-02-19T07:55:12.375Z,99.99
2018-02-19T07:56:26.386Z,99.99
2018-02-19T07:57:40.654Z,99.99
2018-02-19T07:58:54.396Z,99.99
2018-02-19T08:00:08.677Z,99.99
2018-02-19T08:01:22.926Z,99.99
2018-02-19T08:02:37.203Z,99.99
2018-02-19T08:03:51.933Z,99.99
2018-02-19T08:05:06.465Z,99.99
2018-02-19T08:06:20.947Z,99.99
2018-02-19T08:07:34.723Z,99.99
2018-02-19T08:08:48.950Z,99.99
2018-02-19T08:10:03.205Z,99.99
2018-02-19T08:11:16.974Z,99.99
2018-02-19T08:12:30.855Z,99.99
2018-02-19T08:13:45.436Z,99.99
2018-02-19T08:15:00.161Z,99.99
2018-02-19T08:16:14.624Z,99.99
2018-02-19T08:17:28.206Z,99.99
2018-02-19T08:18:42.185Z,99.99
2018-02-19T08:19:56.937Z,99.99
2018-02-19T08:21:10.682Z,99.99
2018-02-19T08:22:24.756Z,99.99
2018-02-19T08:23:39.034Z,99.99
2018-02-19T08:24:52.793Z,99.99
2018-02-19T08:26:07.548Z,99.99
2018-02-19T08:27:22.055Z,99.99
2018-02-19T08:28:36.070Z,99.99
2018-02-19T08:29:50.108Z,99.99
2018-02-19T08:31:04.346Z,99.99
2018-02-19T08:32:18.449Z,99.99
2018-02-19T08:33:32.218Z,99.99
2018-02-19T08:34:46.745Z,99.99
2018-02-19T08:36:00.454Z,99.99
2018-02-19T08:37:14.737Z,99.99
2018-02-19T08:38:28.724Z,99.99
2018-02-19T08:39:42.947Z,99.99
2018-02-19T08:40:56.726Z,99.99
2018-02-19T08:42:11.243Z,99.99
2018-02-19T08:43:24.995Z,99.99
2018-02-19T08:44:39.028Z,99.99
2018-02-19T08:45:53.274Z,99.99
2018-02-19T08:47:07.053Z,99.99
2018-02-19T08:48:20.817Z,99.99
2018-02-19T08:49:35.099Z,99.99
2018-02-19T08:50:49.483Z,99.99
2018-02-19T08:52:03.771Z,99.99
2018-02-19T08:53:18.309Z,99.99
2018-02-19T08:54:32.456Z,99.99
2018-02-19T08:55:46.715Z,99.99
2018-02-19T08:57:00.734Z,99.99
2018-02-19T08:58:14.959Z,99.99
2018-02-19T08:59:28.985Z,99.99
2018-02-19T09:00:43.342Z,99.99
2018-02-19T09:01:57.120Z,99.99
2018-02-19T09:03:11.629Z,99.99
2018-02-19T09:04:25.898Z,99.99
2018-02-19T09:05:40.033Z,99.99
2018-02-19T09:06:54.586Z,99.99
2018-02-19T09:08:08.344Z,99.99
2018-02-19T09:09:22.341Z,99.99
2018-02-19T09:10:36.615Z,99.99
2018-02-19T09:11:51.069Z,99.99
2018-02-19T09:13:05.080Z,99.99
2018-02-19T09:14:19.606Z,99.99
2018-02-19T09:15:34.084Z,99.99
2018-02-19T09:16:48.582Z,99.99
2018-02-19T09:18:02.147Z,99.99
2018-02-19T09:19:16.906Z,99.99
2018-02-19T09:20:31.676Z,99.99
2018-02-19T09:21:45.436Z,99.99
2018-02-19T09:22:59.486Z,99.99
2018-02-19T09:24:13.390Z,99.99
2018-02-19T09:25:28.154Z,99.99
2018-02-19T09:26:42.670Z,99.99
2018-02-19T09:27:56.945Z,99.99
2018-02-19T09:29:10.716Z,99.99
2018-02-19T09:30:24.706Z,99.99
2018-02-19T09:31:38.722Z,99.99
2018-02-19T09:32:53.000Z,99.99
2018-02-19T09:34:07.040Z,99.99
2018-02-19T09:35:21.570Z,99.99
2018-02-19T09:36:35.634Z,99.99
2018-02-19T09:37:49.649Z,99.99
2018-02-19T09:39:03.886Z,99.99
2018-02-19T09:40:17.925Z,99.99
2018-02-19T09:41:31.685Z,99.99
2018-02-19T09:42:46.311Z,99.99
2018-02-19T09:44:00.322Z,99.99
2018-02-19T09:45:14.372Z,99.99
2018-02-19T09:46:28.906Z,99.99
2018-02-19T09:47:43.475Z,99.99
2018-02-19T09:48:57.831Z,99.99
2018-02-19T09:50:12.610Z,99.99
2018-02-19T09:51:26.627Z,99.99
2018-02-19T09:52:40.664Z,99.99
2018-02-19T09:53:54.435Z,99.99
2018-02-19T09:55:08.994Z,99.99
2018-02-19T09:56:23.287Z,99.99
2018-02-19T09:57:37.461Z,99.99
2018-02-19T09:58:51.723Z,99.99
2018-02-19T10:00:06.235Z,99.99
2018-02-19T10:01:20.308Z,99.99
2018-02-19T10:02:34.330Z,99.99
2018-02-19T10:03:48.574Z,99.99
2018-02-19T10:05:03.114Z,99.99
2018-02-19T10:06:17.629Z,99.99
2018-02-19T10:07:32.417Z,99.99
2018-02-19T10:08:46.220Z,99.99
2018-02-19T10:10:00.773Z,99.99
2018-02-19T10:11:15.187Z,99.39
2018-02-19T10:12:29.223Z,99.2
2018-02-19T10:13:43.774Z,99.2
2018-02-19T10:14:58.537Z,98.77
2018-02-19T10:16:12.820Z,97.92
2018-02-19T10:17:27.123Z,97.83
2018-02-19T10:18:41.452Z,97.73
2018-02-19T10:19:55.978Z,97.64
2018-02-19T10:21:10.278Z,97.45
2018-02-19T10:22:24.102Z,97.35
2018-02-19T10:23:38.345Z,96.97
2018-02-19T10:24:52.613Z,96.78
2018-02-19T10:26:07.124Z,96.59
2018-02-19T10:27:21.130Z,96.69
2018-02-19T10:28:35.634Z,96.22
2018-02-19T10:29:49.151Z,95.36
2018-02-19T10:31:03.596Z,96.22
2018-02-19T10:32:18.121Z,95.55
2018-02-19T10:33:32.695Z,96.41
2018-02-19T10:34:47.179Z,96.5
2018-02-19T10:36:00.996Z,96.59
2018-02-19T10:37:15.500Z,96.5
2018-02-19T10:38:29.974Z,96.88
2018-02-19T10:39:43.815Z,96.41
2018-02-19T10:40:57.385Z,96.03
2018-02-19T10:42:11.647Z,95.07
2018-02-19T10:43:25.694Z,95.93
2018-02-19T10:44:40.310Z,95.17
2018-02-19T10:45:54.684Z,94.89
2018-02-19T10:47:09.420Z,94.6
2018-02-19T10:48:23.747Z,94.6
2018-02-19T10:49:38.108Z,94.04
2018-02-19T10:50:52.133Z,94.04
2018-02-19T10:52:06.435Z,94.32
2018-02-19T10:53:20.977Z,95.26
2018-02-19T10:54:35.233Z,94.42
2018-02-19T10:55:49.756Z,93.94
2018-02-19T10:57:03.828Z,93.75
2018-02-19T10:58:17.652Z,94.13
2018-02-19T10:59:31.170Z,94.32
2018-02-19T11:00:45.731Z,94.13
2018-02-19T11:01:59.996Z,94.32
2018-02-19T11:03:14.293Z,94.13
2018-02-19T11:04:28.439Z,94.04
2018-02-19T11:05:42.943Z,94.04
2018-02-19T11:06:57.454Z,93.8
2018-02-19T11:08:11.981Z,93.32
2018-02-19T11:09:25.783Z,92.57
2018-02-19T11:10:40.311Z,92.28
2018-02-19T11:11:54.051Z,91.71
2018-02-19T11:13:07.874Z,90.95
2018-02-19T11:14:22.264Z,90.38
2018-02-19T11:15:36.321Z,91.05
2018-02-19T11:16:50.328Z,90.76
2018-02-19T11:18:04.090Z,90.95
2018-02-19T11:19:18.367Z,90.48
2018-02-19T11:20:32.653Z,91.52
2018-02-19T11:21:46.460Z,90.95
2018-02-19T11:23:01.006Z,91.9
2018-02-19T11:24:15.085Z,91.14
2018-02-19T11:25:29.081Z,91.05
2018-02-19T11:26:43.562Z,90.71
2018-02-19T11:27:58.051Z,90.43
2018-02-19T11:29:12.584Z,90.24
2018-02-19T11:30:26.092Z,90.05
2018-02-19T11:31:40.158Z,89.48
2018-02-19T11:32:54.685Z,89.1
2018-02-19T11:34:08.570Z,88.34
2018-02-19T11:35:22.823Z,87.77
2018-02-19T11:36:37.362Z,87.11
2018-02-19T11:37:52.031Z,87.3
2018-02-19T11:39:06.298Z,87.15
2018-02-19T11:40:20.113Z,87.15
2018-02-19T11:41:34.332Z,86.68
2018-02-19T11:42:47.433Z,86.58
2018-02-19T11:44:01.964Z,86.3
2018-02-19T11:45:16.286Z,86.87
2018-02-19T11:46:30.819Z,86.3
2018-02-19T11:47:45.283Z,86.07
2018-02-19T11:48:59.320Z,86.54
2018-02-19T11:50:13.821Z,86.72
2018-02-19T11:51:28.132Z,86.58
2018-02-19T11:52:42.702Z,86.77
2018-02-19T11:53:56.806Z,86.11
2018-02-19T11:55:11.089Z,86.68
2018-02-19T11:56:25.367Z,86.2
2018-02-19T11:57:39.623Z,86.2
2018-02-19T11:58:54.142Z,86.11
2018-02-19T12:00:08.685Z,85.63
2018-02-19T12:01:23.188Z,85.82
2018-02-19T12:02:37.481Z,85.91
2018-02-19T12:03:52.026Z,84.44
2018-02-19T12:05:06.262Z,83.97
2018-02-19T12:06:20.827Z,83.54
2018-02-19T12:07:34.834Z,82.35
2018-02-19T12:08:49.377Z,81.68
2018-02-19T12:10:03.649Z,81.93
2018-02-19T12:11:17.793Z,82.5
2018-02-19T12:12:31.610Z,83.54
2018-02-19T12:13:45.598Z,83.59
2018-02-19T12:14:59.879Z,84.4
2018-02-19T12:16:14.368Z,83.83
2018-02-19T12:17:28.917Z,83.07
2018-02-19T12:18:43.184Z,82.88
2018-02-19T12:19:57.455Z,82.78
2018-02-19T12:21:11.978Z,81.84
2018-02-19T12:22:26.263Z,81.93
2018-02-19T12:23:40.276Z,82.03
2018-02-19T12:24:54.802Z,83.36
2018-02-19T12:26:08.829Z,82.59
2018-02-19T12:27:22.863Z,82.12
2018-02-19T12:28:36.911Z,81.45
2018-02-19T12:29:51.267Z,81.36
2018-02-19T12:31:05.768Z,81.55
2018-02-19T12:32:20.373Z,81.93
2018-02-19T12:33:34.699Z,81.07
2018-02-19T12:34:49.444Z,81.17
2018-02-19T12:36:18.124Z,81.36
2018-02-19T12:37:32.403Z,82.36
2018-02-19T12:38:46.667Z,82.36
2018-02-19T12:40:01.212Z,81.55
2018-02-19T12:41:16.052Z,81.07
2018-02-19T12:42:30.365Z,81.32
2018-02-19T12:43:44.996Z,81.6
2018-02-19T12:44:59.333Z,82.65
2018-02-19T12:46:13.126Z,83.5
2018-02-19T12:47:27.430Z,84.36
2018-02-19T12:48:41.255Z,84.45
2018-02-19T12:49:55.106Z,85.21
2018-02-19T12:51:09.676Z,85.21
2018-02-19T12:52:23.545Z,83.97
2018-02-19T12:53:38.368Z,83.88
2018-02-19T12:55:07.319Z,83.88
2018-02-19T12:56:22.112Z,82.97
2018-02-19T12:57:35.917Z,81.65
2018-02-19T12:58:50.095Z,81.84
2018-02-19T13:00:04.654Z,81.17
2018-02-19T13:01:19.535Z,81.36
2018-02-19T13:02:33.930Z,81.45
2018-02-19T13:03:47.476Z,80.94
2018-02-19T13:05:00.852Z,80.98
2018-02-19T13:06:15.339Z,80.94
2018-02-19T13:07:29.518Z,81.17
2018-02-19T13:08:44.482Z,81.79
2018-02-19T13:09:59.420Z,82.08
2018-02-19T13:11:13.714Z,82.65
2018-02-19T13:12:28.285Z,82.36
2018-02-19T13:13:43.010Z,82.46
2018-02-19T13:14:57.207Z,81.74
2018-02-19T13:16:11.937Z,81.6
2018-02-19T13:17:26.293Z,82.27
2018-02-19T13:18:40.844Z,83.31
2018-02-19T13:19:55.486Z,83.12
2018-02-19T13:21:10.416Z,83.4
2018-02-19T13:22:25.704Z,82.93
2018-02-19T13:23:40.076Z,82.65
2018-02-19T13:24:54.643Z,82.65
2018-02-19T13:26:09.220Z,82.59
2018-02-19T13:27:23.878Z,82.69
2018-02-19T13:28:38.237Z,82.88
2018-02-19T13:29:52.262Z,82.03
2018-02-19T13:31:06.287Z,81.36
2018-02-19T13:32:20.629Z,81.65
2018-02-19T13:33:35.495Z,81.45
2018-02-19T13:34:50.240Z,81.26
2018-02-19T13:36:04.574Z,81.17
2018-02-19T13:37:19.878Z,81.17
2018-02-19T13:38:34.232Z,80.88
2018-02-19T13:39:48.429Z,81.32
2018-02-19T13:41:03.066Z,80.88
2018-02-19T13:42:17.042Z,81.04
2018-02-19T13:43:31.489Z,81.32
2018-02-19T13:44:45.754Z,81.32
2018-02-19T13:46:00.189Z,81.32
2018-02-19T13:47:14.907Z,81.51
2018-02-19T13:48:29.050Z,81.41
2018-02-19T13:49:43.572Z,80.88
2018-02-19T13:50:58.103Z,80.88
2018-02-19T13:52:11.957Z,80.84
2018-02-19T13:53:26.523Z,81.51
2018-02-19T13:54:41.290Z,81.32
2018-02-19T13:55:55.964Z,81.79
2018-02-19T13:57:10.452Z,81.88
2018-02-19T13:58:24.839Z,82.27
2018-02-19T13:59:39.256Z,81.51
2018-02-19T14:00:53.625Z,81.32
2018-02-19T14:02:07.409Z,81.41
2018-02-19T14:03:22.093Z,81.32
2018-02-19T14:04:36.711Z,81.32
2018-02-19T14:05:51.541Z,81.32
2018-02-19T14:07:06.171Z,81.41
2018-02-19T14:08:20.749Z,82.17
2018-02-19T14:09:35.388Z,82.17
2018-02-19T14:10:49.732Z,81.32
2018-02-19T14:12:04.316Z,81.17
2018-02-19T14:13:19.354Z,81.13
2018-02-19T14:14:34.013Z,80.75
2018-02-19T14:15:48.632Z,81.32
2018-02-19T14:17:02.908Z,80.94
2018-02-19T14:18:17.500Z,81.23
2018-02-19T14:19:31.660Z,81.04
2018-02-19T14:20:46.005Z,81.79
2018-02-19T14:21:59.979Z,81.79
2018-02-19T14:23:14.949Z,81.88
2018-02-19T14:24:29.541Z,82.08
2018-02-19T14:25:44.118Z,82.17
2018-02-19T14:26:58.789Z,82.27
2018-02-19T14:28:12.575Z,82.08
2018-02-19T14:29:26.715Z,82.08
2018-02-19T14:30:41.631Z,82.17
2018-02-19T14:31:55.662Z,82.55
2018-02-19T14:33:09.719Z,81.94
2018-02-19T14:34:23.763Z,82.27
2018-02-19T14:35:37.582Z,82.6
2018-02-19T14:36:52.118Z,82.42
2018-02-19T14:38:21.300Z,82.04
2018-02-19T14:39:34.870Z,82.32
2018-02-19T14:40:49.074Z,82.32
2018-02-19T14:42:03.387Z,82.51
2018-02-19T14:43:17.679Z,82.98
2018-02-19T14:44:32.274Z,82.6
2018-02-19T14:45:46.908Z,82.13
2018-02-19T14:47:01.227Z,81.66
2018-02-19T14:48:15.249Z,81.94
2018-02-19T14:49:29.559Z,82.04
2018-02-19T14:50:44.204Z,82.04
2018-02-19T14:51:59.073Z,81.75
2018-02-19T14:53:13.221Z,82.13
2018-02-19T14:54:27.876Z,82.32
2018-02-19T14:55:42.671Z,81.85
2018-02-19T14:56:56.965Z,82.04
2018-02-19T14:58:11.569Z,82.13
2018-02-19T14:59:26.140Z,82.13
2018-02-19T15:00:40.217Z,82.13
2018-02-19T15:01:54.081Z,81.85
2018-02-19T15:03:07.722Z,81.94
2018-02-19T15:04:21.754Z,81.56
2018-02-19T15:05:35.807Z,81.85
2018-02-19T15:06:50.337Z,81.75
2018-02-19T15:08:04.626Z,82.04
2018-02-19T15:09:19.032Z,82.13
2018-02-19T15:10:33.048Z,82.04
2018-02-19T15:11:47.300Z,81.85
2018-02-19T15:13:02.000Z,82.42
2018-02-19T15:14:15.541Z,81.85
2018-02-19T15:15:29.438Z,82.13
2018-02-19T15:16:43.955Z,82.23
2018-02-19T15:17:57.766Z,82.6
2018-02-19T15:19:12.118Z,82.32
2018-02-19T15:20:26.365Z,82.51
2018-02-19T15:21:40.547Z,82.42
2018-02-19T15:22:54.893Z,82.51
2018-02-19T15:24:09.428Z,82.6
2018-02-19T15:25:23.799Z,82.51
2018-02-19T15:26:37.900Z,82.32
2018-02-19T15:27:52.192Z,82.7
2018-02-19T15:29:06.636Z,82.6
2018-02-19T15:30:20.568Z,82.51
2018-02-19T15:31:35.104Z,82.89
2018-02-19T15:32:49.677Z,83.08
2018-02-19T15:34:04.067Z,82.6
2018-02-19T15:35:18.644Z,82.42
2018-02-19T15:36:33.488Z,82.98
2018-02-19T15:37:48.201Z,82.6
2018-02-19T15:39:03.042Z,82.6
2018-02-19T15:40:17.184Z,82.79
2018-02-19T15:41:31.380Z,83.27
2018-02-19T15:42:46.207Z,82.98
2018-02-19T15:44:01.098Z,83.36
2018-02-19T15:45:15.824Z,83.65
2018-02-19T15:46:30.979Z,83.08
2018-02-19T15:47:45.873Z,83.55
2018-02-19T15:49:00.406Z,83.46
2018-02-19T15:50:15.455Z,83.7
2018-02-19T15:51:30.159Z,83.98
2018-02-19T15:52:45.363Z,84.36
2018-02-19T15:54:00.333Z,84.46
2018-02-19T15:55:14.610Z,84.17
2018-02-19T15:56:29.267Z,84.36
2018-02-19T15:57:44.223Z,84.12
2018-02-19T15:59:13.442Z,84.46